sensor_id;sensor_type;location;lat;lon;timestamp;temperature;humidity
25346;DHT22;13300;51.032;3.710;2023-05-16T00:02:07;9.20;99.90
25346;DHT22;13300;51.032;3.710;2023-05-16T00:04:45;9.20;99.90
25346;DHT22;13300;51.032;3.710;2023-05-16T00:07:23;9.20;99.90
25346;DHT22;13300;51.032;3.710;2023-05-16T00:10:07;9.10;99.90
25346;DHT22;13300;51.032;3.710;2023-05-16T00:13:02;9.10;99.90
25346;DHT22;13300;51.032;3.710;2023-05-16T00:15:31;9.10;99.90
25346;DHT22;13300;51.032;3.710;2023-05-16T00:18:00;9.10;99.90
25346;DHT22;13300;51.032;3.710;2023-05-16T00:20:49;8.90;99.90
25346;DHT22;13300;51.032;3.710;2023-05-16T00:23:26;9.00;99.90
25346;DHT22;13300;51.032;3.710;2023-05-16T00:25:57;9.10;99.90
25346;DHT22;13300;51.032;3.710;2023-05-16T00:28:44;9.00;99.90
25346;DHT22;13300;51.032;3.710;2023-05-16T00:31:20;9.00;99.90
25346;DHT22;13300;51.032;3.710;2023-05-16T00:34:01;9.00;99.90
25346;DHT22;13300;51.032;3.710;2023-05-16T00:36:35;8.90;99.90
25346;DHT22;13300;51.032;3.710;2023-05-16T00:39:17;8.90;99.90
25346;DHT22;13300;51.032;3.710;2023-05-16T00:41:47;9.00;99.90
25346;DHT22;13300;51.032;3.710;2023-05-16T00:44:21;8.90;99.90
25346;DHT22;13300;51.032;3.710;2023-05-16T00:47:27;8.90;99.90
25346;DHT22;13300;51.032;3.710;2023-05-16T00:50:16;8.90;99.90
25346;DHT22;13300;51.032;3.710;2023-05-16T00:52:47;8.90;99.90
25346;DHT22;13300;51.032;3.710;2023-05-16T00:55:18;8.80;99.90
25346;DHT22;13300;51.032;3.710;2023-05-16T01:01:22;8.80;99.90
25346;DHT22;13300;51.032;3.710;2023-05-16T01:03:55;8.80;99.90
25346;DHT22;13300;51.032;3.710;2023-05-16T01:06:30;8.80;99.90
25346;DHT22;13300;51.032;3.710;2023-05-16T01:09:09;8.80;99.90
25346;DHT22;13300;51.032;3.710;2023-05-16T01:14:36;8.80;99.90
25346;DHT22;13300;51.032;3.710;2023-05-16T01:20:42;8.80;99.90
25346;DHT22;13300;51.032;3.710;2023-05-16T01:26:55;8.70;99.90
25346;DHT22;13300;51.032;3.710;2023-05-16T01:29:37;8.70;99.90
25346;DHT22;13300;51.032;3.710;2023-05-16T01:32:06;8.70;99.90
25346;DHT22;13300;51.032;3.710;2023-05-16T01:35:08;8.70;99.90
25346;DHT22;13300;51.032;3.710;2023-05-16T01:37:51;8.50;99.90
25346;DHT22;13300;51.032;3.710;2023-05-16T01:43:50;8.70;99.90
25346;DHT22;13300;51.032;3.710;2023-05-16T01:46:26;8.70;99.90
25346;DHT22;13300;51.032;3.710;2023-05-16T01:49:27;8.70;99.90
25346;DHT22;13300;51.032;3.710;2023-05-16T01:52:34;8.60;99.90
25346;DHT22;13300;51.032;3.710;2023-05-16T01:58:50;8.60;99.90
25346;DHT22;13300;51.032;3.710;2023-05-16T02:04:30;8.70;99.90
25346;DHT22;13300;51.032;3.710;2023-05-16T02:07:10;8.60;99.90
25346;DHT22;13300;51.032;3.710;2023-05-16T02:09:52;8.60;99.90
25346;DHT22;13300;51.032;3.710;2023-05-16T02:12:40;8.60;99.90
25346;DHT22;13300;51.032;3.710;2023-05-16T02:15:19;8.50;99.90
25346;DHT22;13300;51.032;3.710;2023-05-16T02:17:47;8.40;99.90
25346;DHT22;13300;51.032;3.710;2023-05-16T02:23:19;8.50;99.90
25346;DHT22;13300;51.032;3.710;2023-05-16T02:26:05;8.50;99.90
25346;DHT22;13300;51.032;3.710;2023-05-16T02:28:44;8.50;99.90
25346;DHT22;13300;51.032;3.710;2023-05-16T02:31:32;8.50;99.90
25346;DHT22;13300;51.032;3.710;2023-05-16T02:34:17;8.40;99.90
25346;DHT22;13300;51.032;3.710;2023-05-16T02:37:09;8.40;99.90
25346;DHT22;13300;51.032;3.710;2023-05-16T02:39:43;8.40;99.90
25346;DHT22;13300;51.032;3.710;2023-05-16T02:42:29;8.40;99.90
25346;DHT22;13300;51.032;3.710;2023-05-16T02:45:03;8.40;99.90
25346;DHT22;13300;51.032;3.710;2023-05-16T02:47:40;8.40;99.90
25346;DHT22;13300;51.032;3.710;2023-05-16T02:50:26;8.40;99.90
25346;DHT22;13300;51.032;3.710;2023-05-16T02:52:52;8.50;99.90
25346;DHT22;13300;51.032;3.710;2023-05-16T02:55:36;8.50;99.90
25346;DHT22;13300;51.032;3.710;2023-05-16T02:58:07;8.60;99.90
25346;DHT22;13300;51.032;3.710;2023-05-16T03:00:36;8.50;99.90
25346;DHT22;13300;51.032;3.710;2023-05-16T03:03:31;8.40;99.90
25346;DHT22;13300;51.032;3.710;2023-05-16T03:06:02;8.40;99.90
25346;DHT22;13300;51.032;3.710;2023-05-16T03:08:38;8.30;99.90
25346;DHT22;13300;51.032;3.710;2023-05-16T03:11:10;8.50;99.90
25346;DHT22;13300;51.032;3.710;2023-05-16T03:13:46;8.50;99.90
25346;DHT22;13300;51.032;3.710;2023-05-16T03:16:24;8.50;99.90
25346;DHT22;13300;51.032;3.710;2023-05-16T03:18:50;8.30;99.90
25346;DHT22;13300;51.032;3.710;2023-05-16T03:21:29;8.40;99.90
25346;DHT22;13300;51.032;3.710;2023-05-16T03:23:57;8.40;99.90
25346;DHT22;13300;51.032;3.710;2023-05-16T03:26:28;8.40;99.90
25346;DHT22;13300;51.032;3.710;2023-05-16T03:29:07;8.30;99.90
25346;DHT22;13300;51.032;3.710;2023-05-16T03:31:37;8.30;99.90
25346;DHT22;13300;51.032;3.710;2023-05-16T03:34:06;8.30;99.90
25346;DHT22;13300;51.032;3.710;2023-05-16T03:36:38;8.30;99.90
25346;DHT22;13300;51.032;3.710;2023-05-16T03:39:13;8.30;99.90
25346;DHT22;13300;51.032;3.710;2023-05-16T03:41:51;8.30;99.90
25346;DHT22;13300;51.032;3.710;2023-05-16T03:44:32;8.20;99.90
25346;DHT22;13300;51.032;3.710;2023-05-16T03:47:13;8.20;99.90
25346;DHT22;13300;51.032;3.710;2023-05-16T03:49:54;8.20;99.90
25346;DHT22;13300;51.032;3.710;2023-05-16T03:52:25;8.10;99.90
25346;DHT22;13300;51.032;3.710;2023-05-16T03:54:57;8.00;99.90
25346;DHT22;13300;51.032;3.710;2023-05-16T03:57:22;8.10;99.90
25346;DHT22;13300;51.032;3.710;2023-05-16T03:59:55;8.10;99.90
25346;DHT22;13300;51.032;3.710;2023-05-16T04:02:54;8.00;99.90
25346;DHT22;13300;51.032;3.710;2023-05-16T04:05:26;8.10;99.90
25346;DHT22;13300;51.032;3.710;2023-05-16T04:07:56;8.10;99.90
25346;DHT22;13300;51.032;3.710;2023-05-16T04:10:36;8.10;99.90
25346;DHT22;13300;51.032;3.710;2023-05-16T04:13:16;8.00;99.90
25346;DHT22;13300;51.032;3.710;2023-05-16T04:15:47;7.90;99.90
25346;DHT22;13300;51.032;3.710;2023-05-16T04:18:34;8.10;99.90
25346;DHT22;13300;51.032;3.710;2023-05-16T04:21:02;8.10;99.90
25346;DHT22;13300;51.032;3.710;2023-05-16T04:23:41;8.10;99.90
25346;DHT22;13300;51.032;3.710;2023-05-16T04:26:19;8.10;99.90
25346;DHT22;13300;51.032;3.710;2023-05-16T04:28:56;8.10;99.90
25346;DHT22;13300;51.032;3.710;2023-05-16T04:31:25;8.00;99.90
25346;DHT22;13300;51.032;3.710;2023-05-16T04:33:57;8.00;99.90
25346;DHT22;13300;51.032;3.710;2023-05-16T04:36:33;7.90;99.90
25346;DHT22;13300;51.032;3.710;2023-05-16T04:39:00;7.90;99.90
25346;DHT22;13300;51.032;3.710;2023-05-16T04:41:34;8.10;99.90
25346;DHT22;13300;51.032;3.710;2023-05-16T04:44:03;8.30;99.90
25346;DHT22;13300;51.032;3.710;2023-05-16T04:46:29;8.30;99.90
25346;DHT22;13300;51.032;3.710;2023-05-16T04:48:58;8.40;99.90
25346;DHT22;13300;51.032;3.710;2023-05-16T04:51:23;8.40;99.90
25346;DHT22;13300;51.032;3.710;2023-05-16T04:53:50;8.40;99.90
25346;DHT22;13300;51.032;3.710;2023-05-16T04:56:16;8.40;99.90
25346;DHT22;13300;51.032;3.710;2023-05-16T04:58:44;8.50;99.90
25346;DHT22;13300;51.032;3.710;2023-05-16T05:01:15;8.50;99.90
25346;DHT22;13300;51.032;3.710;2023-05-16T05:03:50;8.60;99.90
25346;DHT22;13300;51.032;3.710;2023-05-16T05:06:18;8.70;99.90
25346;DHT22;13300;51.032;3.710;2023-05-16T05:08:47;8.80;99.90
25346;DHT22;13300;51.032;3.710;2023-05-16T05:11:15;8.90;99.90
25346;DHT22;13300;51.032;3.710;2023-05-16T05:13:43;9.00;99.90
25346;DHT22;13300;51.032;3.710;2023-05-16T05:16:10;9.10;99.90
25346;DHT22;13300;51.032;3.710;2023-05-16T05:18:45;9.40;99.90
25346;DHT22;13300;51.032;3.710;2023-05-16T05:21:11;9.50;99.90
25346;DHT22;13300;51.032;3.710;2023-05-16T05:23:40;9.60;99.90
25346;DHT22;13300;51.032;3.710;2023-05-16T05:26:08;9.70;99.90
25346;DHT22;13300;51.032;3.710;2023-05-16T05:28:37;9.70;99.90
25346;DHT22;13300;51.032;3.710;2023-05-16T05:31:04;9.90;99.90
25346;DHT22;13300;51.032;3.710;2023-05-16T05:33:33;10.00;99.90
25346;DHT22;13300;51.032;3.710;2023-05-16T05:36:01;10.20;99.90
25346;DHT22;13300;51.032;3.710;2023-05-16T05:38:35;10.30;99.90
25346;DHT22;13300;51.032;3.710;2023-05-16T05:41:01;10.40;99.90
25346;DHT22;13300;51.032;3.710;2023-05-16T05:43:31;10.50;99.90
25346;DHT22;13300;51.032;3.710;2023-05-16T05:46:05;10.40;99.90
25346;DHT22;13300;51.032;3.710;2023-05-16T05:48:47;10.70;99.90
25346;DHT22;13300;51.032;3.710;2023-05-16T05:51:17;10.90;99.90
25346;DHT22;13300;51.032;3.710;2023-05-16T05:53:57;11.00;99.90
25346;DHT22;13300;51.032;3.710;2023-05-16T05:56:25;11.10;99.90
25346;DHT22;13300;51.032;3.710;2023-05-16T05:59:09;11.20;99.90
25346;DHT22;13300;51.032;3.710;2023-05-16T06:01:43;11.30;99.90
25346;DHT22;13300;51.032;3.710;2023-05-16T06:04:10;11.50;99.90
25346;DHT22;13300;51.032;3.710;2023-05-16T06:06:39;11.50;99.90
25346;DHT22;13300;51.032;3.710;2023-05-16T06:09:07;11.70;99.90
25346;DHT22;13300;51.032;3.710;2023-05-16T06:11:38;11.80;99.90
25346;DHT22;13300;51.032;3.710;2023-05-16T06:14:05;12.00;99.90
25346;DHT22;13300;51.032;3.710;2023-05-16T06:16:41;12.10;99.90
25346;DHT22;13300;51.032;3.710;2023-05-16T06:19:10;12.40;99.90
25346;DHT22;13300;51.032;3.710;2023-05-16T06:21:42;12.60;99.90
25346;DHT22;13300;51.032;3.710;2023-05-16T06:24:10;12.80;99.90
25346;DHT22;13300;51.032;3.710;2023-05-16T06:26:39;13.10;99.90
25346;DHT22;13300;51.032;3.710;2023-05-16T06:29:15;13.20;99.90
25346;DHT22;13300;51.032;3.710;2023-05-16T06:31:49;13.40;99.90
25346;DHT22;13300;51.032;3.710;2023-05-16T06:34:17;13.40;99.90
25346;DHT22;13300;51.032;3.710;2023-05-16T06:36:59;13.50;99.90
25346;DHT22;13300;51.032;3.710;2023-05-16T06:39:28;13.40;99.90
25346;DHT22;13300;51.032;3.710;2023-05-16T06:42:03;13.40;99.90
25346;DHT22;13300;51.032;3.710;2023-05-16T06:44:33;13.60;99.90
25346;DHT22;13300;51.032;3.710;2023-05-16T06:46:59;13.70;99.90
25346;DHT22;13300;51.032;3.710;2023-05-16T06:49:31;13.90;99.90
25346;DHT22;13300;51.032;3.710;2023-05-16T06:52:02;13.90;99.90
25346;DHT22;13300;51.032;3.710;2023-05-16T06:54:28;13.80;99.90
25346;DHT22;13300;51.032;3.710;2023-05-16T06:56:54;13.80;99.90
25346;DHT22;13300;51.032;3.710;2023-05-16T06:59:23;14.00;99.90
25346;DHT22;13300;51.032;3.710;2023-05-16T07:01:56;14.10;99.90
25346;DHT22;13300;51.032;3.710;2023-05-16T07:04:22;14.20;99.90
25346;DHT22;13300;51.032;3.710;2023-05-16T07:06:55;14.50;99.90
25346;DHT22;13300;51.032;3.710;2023-05-16T07:09:24;15.00;99.90
25346;DHT22;13300;51.032;3.710;2023-05-16T07:11:49;15.40;99.90
25346;DHT22;13300;51.032;3.710;2023-05-16T07:14:18;15.80;99.90
25346;DHT22;13300;51.032;3.710;2023-05-16T07:16:47;15.90;99.90
25346;DHT22;13300;51.032;3.710;2023-05-16T07:19:15;16.40;99.90
25346;DHT22;13300;51.032;3.710;2023-05-16T07:21:41;16.80;99.90
25346;DHT22;13300;51.032;3.710;2023-05-16T07:24:07;17.40;99.90
25346;DHT22;13300;51.032;3.710;2023-05-16T07:26:33;18.40;99.90
25346;DHT22;13300;51.032;3.710;2023-05-16T07:29:02;19.10;99.90
25346;DHT22;13300;51.032;3.710;2023-05-16T07:31:31;19.40;99.90
25346;DHT22;13300;51.032;3.710;2023-05-16T07:33:59;20.00;99.90
25346;DHT22;13300;51.032;3.710;2023-05-16T07:36:25;19.80;99.90
25346;DHT22;13300;51.032;3.710;2023-05-16T07:38:54;19.20;99.90
25346;DHT22;13300;51.032;3.710;2023-05-16T07:41:22;18.20;99.90
25346;DHT22;13300;51.032;3.710;2023-05-16T07:43:49;17.00;99.90
25346;DHT22;13300;51.032;3.710;2023-05-16T07:46:18;16.50;99.90
25346;DHT22;13300;51.032;3.710;2023-05-16T07:48:45;16.90;99.90
25346;DHT22;13300;51.032;3.710;2023-05-16T07:51:11;17.90;99.90
25346;DHT22;13300;51.032;3.710;2023-05-16T07:53:37;18.60;99.90
25346;DHT22;13300;51.032;3.710;2023-05-16T07:56:03;19.30;99.90
25346;DHT22;13300;51.032;3.710;2023-05-16T07:58:29;19.60;99.90
25346;DHT22;13300;51.032;3.710;2023-05-16T08:00:57;19.70;99.90
25346;DHT22;13300;51.032;3.710;2023-05-16T08:03:23;20.20;99.90
25346;DHT22;13300;51.032;3.710;2023-05-16T08:05:50;20.70;99.90
25346;DHT22;13300;51.032;3.710;2023-05-16T08:08:16;21.50;99.90
25346;DHT22;13300;51.032;3.710;2023-05-16T08:10:44;22.30;99.40
25346;DHT22;13300;51.032;3.710;2023-05-16T08:13:10;22.80;97.80
25346;DHT22;13300;51.032;3.710;2023-05-16T08:15:38;22.20;97.60
25346;DHT22;13300;51.032;3.710;2023-05-16T08:18:12;22.90;96.30
25346;DHT22;13300;51.032;3.710;2023-05-16T08:20:42;22.70;94.30
25346;DHT22;13300;51.032;3.710;2023-05-16T08:23:10;21.60;95.30
25346;DHT22;13300;51.032;3.710;2023-05-16T08:25:36;20.30;96.70
25346;DHT22;13300;51.032;3.710;2023-05-16T08:28:04;19.50;98.20
25346;DHT22;13300;51.032;3.710;2023-05-16T08:30:36;19.30;99.00
25346;DHT22;13300;51.032;3.710;2023-05-16T08:33:02;20.30;98.50
25346;DHT22;13300;51.032;3.710;2023-05-16T08:35:31;21.30;96.50
25346;DHT22;13300;51.032;3.710;2023-05-16T08:38:00;22.40;95.20
25346;DHT22;13300;51.032;3.710;2023-05-16T08:40:28;23.20;93.90
25346;DHT22;13300;51.032;3.710;2023-05-16T08:42:56;23.50;92.90
25346;DHT22;13300;51.032;3.710;2023-05-16T08:45:23;24.20;92.50
25346;DHT22;13300;51.032;3.710;2023-05-16T08:47:55;24.60;92.20
25346;DHT22;13300;51.032;3.710;2023-05-16T08:50:25;24.60;91.60
25346;DHT22;13300;51.032;3.710;2023-05-16T08:56:08;23.20;92.70
25346;DHT22;13300;51.032;3.710;2023-05-16T08:58:49;21.90;94.80
25346;DHT22;13300;51.032;3.710;2023-05-16T09:01:16;20.50;96.30
25346;DHT22;13300;51.032;3.710;2023-05-16T09:03:48;19.70;98.10
25346;DHT22;13300;51.032;3.710;2023-05-16T09:06:14;19.00;99.30
25346;DHT22;13300;51.032;3.710;2023-05-16T09:08:43;18.40;99.90
25346;DHT22;13300;51.032;3.710;2023-05-16T09:11:36;18.20;99.90
25346;DHT22;13300;51.032;3.710;2023-05-16T09:14:02;17.90;99.90
25346;DHT22;13300;51.032;3.710;2023-05-16T09:16:30;18.60;99.70
25346;DHT22;13300;51.032;3.710;2023-05-16T09:19:00;18.60;99.60
25346;DHT22;13300;51.032;3.710;2023-05-16T09:21:35;18.70;99.90
25346;DHT22;13300;51.032;3.710;2023-05-16T09:24:09;19.90;99.40
25346;DHT22;13300;51.032;3.710;2023-05-16T09:26:47;21.60;96.70
25346;DHT22;13300;51.032;3.710;2023-05-16T09:29:23;22.80;95.20
25346;DHT22;13300;51.032;3.710;2023-05-16T09:31:51;24.10;93.30
25346;DHT22;13300;51.032;3.710;2023-05-16T09:34:23;24.70;90.50
25346;DHT22;13300;51.032;3.710;2023-05-16T09:36:56;24.00;89.70
25346;DHT22;13300;51.032;3.710;2023-05-16T09:39:26;23.70;90.70
25346;DHT22;13300;51.032;3.710;2023-05-16T09:41:52;24.20;90.90
25346;DHT22;13300;51.032;3.710;2023-05-16T09:44:25;25.10;90.40
25346;DHT22;13300;51.032;3.710;2023-05-16T09:46:53;26.10;88.30
25346;DHT22;13300;51.032;3.710;2023-05-16T09:49:25;26.10;87.50
25346;DHT22;13300;51.032;3.710;2023-05-16T09:52:00;26.40;87.00
25346;DHT22;13300;51.032;3.710;2023-05-16T09:54:33;25.80;86.20
25346;DHT22;13300;51.032;3.710;2023-05-16T09:57:02;25.90;84.80
25346;DHT22;13300;51.032;3.710;2023-05-16T09:59:38;25.80;83.40
25346;DHT22;13300;51.032;3.710;2023-05-16T10:02:05;25.60;84.60
25346;DHT22;13300;51.032;3.710;2023-05-16T10:04:54;25.00;86.30
25346;DHT22;13300;51.032;3.710;2023-05-16T10:07:20;24.40;87.40
25346;DHT22;13300;51.032;3.710;2023-05-16T10:09:47;24.20;87.90
25346;DHT22;13300;51.032;3.710;2023-05-16T10:12:14;24.10;83.30
25346;DHT22;13300;51.032;3.710;2023-05-16T10:14:41;24.40;83.50
25346;DHT22;13300;51.032;3.710;2023-05-16T10:17:11;25.00;83.30
25346;DHT22;13300;51.032;3.710;2023-05-16T10:19:41;25.40;81.90
25346;DHT22;13300;51.032;3.710;2023-05-16T10:22:11;25.30;82.10
25346;DHT22;13300;51.032;3.710;2023-05-16T10:27:08;24.80;84.50
25346;DHT22;13300;51.032;3.710;2023-05-16T10:29:37;24.90;84.10
25346;DHT22;13300;51.032;3.710;2023-05-16T10:32:05;25.20;83.00
25346;DHT22;13300;51.032;3.710;2023-05-16T10:34:35;25.30;82.30
25346;DHT22;13300;51.032;3.710;2023-05-16T10:37:02;25.70;79.70
25346;DHT22;13300;51.032;3.710;2023-05-16T10:39:34;26.00;80.50
25346;DHT22;13300;51.032;3.710;2023-05-16T10:42:03;26.10;81.10
25346;DHT22;13300;51.032;3.710;2023-05-16T10:44:31;25.10;81.20
25346;DHT22;13300;51.032;3.710;2023-05-16T10:47:00;25.40;84.50
25346;DHT22;13300;51.032;3.710;2023-05-16T10:49:42;26.10;81.60
25346;DHT22;13300;51.032;3.710;2023-05-16T10:52:13;25.80;79.80
25346;DHT22;13300;51.032;3.710;2023-05-16T10:54:51;26.00;78.10
25346;DHT22;13300;51.032;3.710;2023-05-16T10:57:22;25.50;80.80
25346;DHT22;13300;51.032;3.710;2023-05-16T10:59:53;25.80;79.40
25346;DHT22;13300;51.032;3.710;2023-05-16T11:02:29;25.50;79.70
25346;DHT22;13300;51.032;3.710;2023-05-16T11:04:58;24.00;81.30
25346;DHT22;13300;51.032;3.710;2023-05-16T11:07:34;23.30;84.10
25346;DHT22;13300;51.032;3.710;2023-05-16T11:10:14;23.60;84.40
25346;DHT22;13300;51.032;3.710;2023-05-16T11:12:50;24.70;81.80
25346;DHT22;13300;51.032;3.710;2023-05-16T11:15:31;25.60;80.50
25346;DHT22;13300;51.032;3.710;2023-05-16T11:18:15;25.60;80.30
25346;DHT22;13300;51.032;3.710;2023-05-16T11:23:30;23.20;80.70
25346;DHT22;13300;51.032;3.710;2023-05-16T11:26:09;23.90;81.50
25346;DHT22;13300;51.032;3.710;2023-05-16T11:28:37;25.00;78.60
25346;DHT22;13300;51.032;3.710;2023-05-16T11:31:08;25.80;80.10
25346;DHT22;13300;51.032;3.710;2023-05-16T11:33:51;26.10;78.70
25346;DHT22;13300;51.032;3.710;2023-05-16T11:36:18;26.20;78.80
25346;DHT22;13300;51.032;3.710;2023-05-16T11:38:48;24.70;80.30
25346;DHT22;13300;51.032;3.710;2023-05-16T11:41:28;24.50;80.70
25346;DHT22;13300;51.032;3.710;2023-05-16T11:44:02;25.40;80.60
25346;DHT22;13300;51.032;3.710;2023-05-16T11:46:32;25.20;79.40
25346;DHT22;13300;51.032;3.710;2023-05-16T11:49:02;24.20;81.00
25346;DHT22;13300;51.032;3.710;2023-05-16T11:51:40;24.40;80.30
25346;DHT22;13300;51.032;3.710;2023-05-16T11:54:17;25.20;78.10
25346;DHT22;13300;51.032;3.710;2023-05-16T11:56:43;25.70;78.20
25346;DHT22;13300;51.032;3.710;2023-05-16T11:59:10;25.80;78.10
25346;DHT22;13300;51.032;3.710;2023-05-16T12:01:47;25.80;78.40
25346;DHT22;13300;51.032;3.710;2023-05-16T12:04:17;25.00;78.00
25346;DHT22;13300;51.032;3.710;2023-05-16T12:06:59;25.10;78.20
25346;DHT22;13300;51.032;3.710;2023-05-16T12:09:33;25.70;77.20
25346;DHT22;13300;51.032;3.710;2023-05-16T12:12:02;26.40;77.50
25346;DHT22;13300;51.032;3.710;2023-05-16T12:14:29;26.10;76.30
25346;DHT22;13300;51.032;3.710;2023-05-16T12:16:55;25.80;76.40
25346;DHT22;13300;51.032;3.710;2023-05-16T12:19:22;25.50;77.00
25346;DHT22;13300;51.032;3.710;2023-05-16T12:21:51;25.20;77.00
25346;DHT22;13300;51.032;3.710;2023-05-16T12:24:35;25.60;76.70
25346;DHT22;13300;51.032;3.710;2023-05-16T12:27:21;26.00;77.60
25346;DHT22;13300;51.032;3.710;2023-05-16T12:29:52;26.30;76.40
25346;DHT22;13300;51.032;3.710;2023-05-16T12:32:18;26.20;75.40
25346;DHT22;13300;51.032;3.710;2023-05-16T12:34:53;26.00;75.60
25346;DHT22;13300;51.032;3.710;2023-05-16T12:37:21;25.40;76.80
25346;DHT22;13300;51.032;3.710;2023-05-16T12:39:49;25.00;79.00
25346;DHT22;13300;51.032;3.710;2023-05-16T12:42:16;24.50;77.80
25346;DHT22;13300;51.032;3.710;2023-05-16T12:44:44;23.70;79.30
25346;DHT22;13300;51.032;3.710;2023-05-16T12:47:11;23.60;80.80
25346;DHT22;13300;51.032;3.710;2023-05-16T12:49:54;24.50;79.00
25346;DHT22;13300;51.032;3.710;2023-05-16T12:52:22;25.00;79.00
25346;DHT22;13300;51.032;3.710;2023-05-16T12:55:11;25.70;78.30
25346;DHT22;13300;51.032;3.710;2023-05-16T12:57:36;26.20;74.50
25346;DHT22;13300;51.032;3.710;2023-05-16T13:00:06;26.10;72.80
25346;DHT22;13300;51.032;3.710;2023-05-16T13:02:36;25.80;74.10
25346;DHT22;13300;51.032;3.710;2023-05-16T13:05:03;26.10;75.40
25346;DHT22;13300;51.032;3.710;2023-05-16T13:07:31;26.50;74.30
25346;DHT22;13300;51.032;3.710;2023-05-16T13:10:08;26.70;73.90
25346;DHT22;13300;51.032;3.710;2023-05-16T13:12:36;27.10;73.10
25346;DHT22;13300;51.032;3.710;2023-05-16T13:15:16;27.30;71.10
25346;DHT22;13300;51.032;3.710;2023-05-16T13:17:52;27.40;71.30
25346;DHT22;13300;51.032;3.710;2023-05-16T13:20:23;26.80;71.30
25346;DHT22;13300;51.032;3.710;2023-05-16T13:22:53;26.40;70.40
25346;DHT22;13300;51.032;3.710;2023-05-16T13:25:32;26.10;71.40
25346;DHT22;13300;51.032;3.710;2023-05-16T13:28:10;25.60;72.60
25346;DHT22;13300;51.032;3.710;2023-05-16T13:30:41;25.60;72.60
25346;DHT22;13300;51.032;3.710;2023-05-16T13:33:09;26.20;71.70
25346;DHT22;13300;51.032;3.710;2023-05-16T13:35:37;26.80;70.30
25346;DHT22;13300;51.032;3.710;2023-05-16T13:38:21;26.60;70.30
25346;DHT22;13300;51.032;3.710;2023-05-16T13:40:47;26.30;70.40
25346;DHT22;13300;51.032;3.710;2023-05-16T13:43:12;25.80;70.50
25346;DHT22;13300;51.032;3.710;2023-05-16T13:45:40;25.70;70.70
25346;DHT22;13300;51.032;3.710;2023-05-16T13:48:06;25.90;71.30
25346;DHT22;13300;51.032;3.710;2023-05-16T13:50:32;25.70;72.30
25346;DHT22;13300;51.032;3.710;2023-05-16T13:53:02;25.60;72.20
25346;DHT22;13300;51.032;3.710;2023-05-16T13:55:28;25.90;71.60
25346;DHT22;13300;51.032;3.710;2023-05-16T13:57:59;26.00;70.30
25346;DHT22;13300;51.032;3.710;2023-05-16T14:00:25;25.80;71.30
25346;DHT22;13300;51.032;3.710;2023-05-16T14:02:55;26.00;70.90
25346;DHT22;13300;51.032;3.710;2023-05-16T14:05:21;25.90;71.00
25346;DHT22;13300;51.032;3.710;2023-05-16T14:07:57;25.60;70.40
25346;DHT22;13300;51.032;3.710;2023-05-16T14:10:23;25.30;70.90
25346;DHT22;13300;51.032;3.710;2023-05-16T14:12:56;25.40;71.30
25346;DHT22;13300;51.032;3.710;2023-05-16T14:15:24;25.30;71.80
25346;DHT22;13300;51.032;3.710;2023-05-16T14:20:32;25.10;74.00
25346;DHT22;13300;51.032;3.710;2023-05-16T14:23:01;25.10;72.10
25346;DHT22;13300;51.032;3.710;2023-05-16T14:25:31;24.90;72.20
25346;DHT22;13300;51.032;3.710;2023-05-16T14:27:57;25.10;72.60
25346;DHT22;13300;51.032;3.710;2023-05-16T14:30:23;25.00;72.30
25346;DHT22;13300;51.032;3.710;2023-05-16T14:32:49;25.00;73.50
25346;DHT22;13300;51.032;3.710;2023-05-16T14:35:19;25.10;72.60
25346;DHT22;13300;51.032;3.710;2023-05-16T14:37:55;25.00;72.20
25346;DHT22;13300;51.032;3.710;2023-05-16T14:40:21;24.80;72.80
25346;DHT22;13300;51.032;3.710;2023-05-16T14:42:56;24.60;73.50
25346;DHT22;13300;51.032;3.710;2023-05-16T14:45:22;24.40;72.70
25346;DHT22;13300;51.032;3.710;2023-05-16T14:47:48;24.20;74.00
25346;DHT22;13300;51.032;3.710;2023-05-16T14:50:16;24.40;73.70
25346;DHT22;13300;51.032;3.710;2023-05-16T14:52:52;24.00;73.70
25346;DHT22;13300;51.032;3.710;2023-05-16T14:55:26;23.80;74.70
25346;DHT22;13300;51.032;3.710;2023-05-16T14:57:52;23.80;75.30
25346;DHT22;13300;51.032;3.710;2023-05-16T15:00:22;23.70;74.30
25346;DHT22;13300;51.032;3.710;2023-05-16T15:02:51;24.10;74.10
25346;DHT22;13300;51.032;3.710;2023-05-16T15:05:20;23.70;73.90
25346;DHT22;13300;51.032;3.710;2023-05-16T15:07:45;23.90;73.30
25346;DHT22;13300;51.032;3.710;2023-05-16T15:10:11;24.00;73.30
25346;DHT22;13300;51.032;3.710;2023-05-16T15:12:37;24.00;74.60
25346;DHT22;13300;51.032;3.710;2023-05-16T15:15:10;23.90;74.90
25346;DHT22;13300;51.032;3.710;2023-05-16T15:17:40;24.00;75.10
25346;DHT22;13300;51.032;3.710;2023-05-16T15:20:09;24.00;75.20
25346;DHT22;13300;51.032;3.710;2023-05-16T15:22:38;24.20;75.40
25346;DHT22;13300;51.032;3.710;2023-05-16T15:25:08;24.40;75.10
25346;DHT22;13300;51.032;3.710;2023-05-16T15:27:34;24.20;74.70
25346;DHT22;13300;51.032;3.710;2023-05-16T15:30:02;23.20;76.20
25346;DHT22;13300;51.032;3.710;2023-05-16T15:32:31;22.90;77.90
25346;DHT22;13300;51.032;3.710;2023-05-16T15:35:01;22.70;78.40
25346;DHT22;13300;51.032;3.710;2023-05-16T15:37:29;22.80;79.30
25346;DHT22;13300;51.032;3.710;2023-05-16T15:39:55;22.60;79.50
25346;DHT22;13300;51.032;3.710;2023-05-16T15:42:23;22.50;80.20
25346;DHT22;13300;51.032;3.710;2023-05-16T15:44:49;22.20;81.70
25346;DHT22;13300;51.032;3.710;2023-05-16T15:47:15;22.10;82.30
25346;DHT22;13300;51.032;3.710;2023-05-16T15:49:41;22.00;82.60
25346;DHT22;13300;51.032;3.710;2023-05-16T15:52:07;21.90;83.60
25346;DHT22;13300;51.032;3.710;2023-05-16T15:54:34;21.70;83.00
25346;DHT22;13300;51.032;3.710;2023-05-16T15:57:00;21.70;83.40
25346;DHT22;13300;51.032;3.710;2023-05-16T15:59:26;21.90;82.50
25346;DHT22;13300;51.032;3.710;2023-05-16T16:01:54;22.20;81.60
25346;DHT22;13300;51.032;3.710;2023-05-16T16:04:20;22.10;81.40
25346;DHT22;13300;51.032;3.710;2023-05-16T16:06:48;22.10;81.80
25346;DHT22;13300;51.032;3.710;2023-05-16T16:09:16;21.90;81.70
25346;DHT22;13300;51.032;3.710;2023-05-16T16:11:43;21.20;82.80
25346;DHT22;13300;51.032;3.710;2023-05-16T16:14:09;21.10;84.00
25346;DHT22;13300;51.032;3.710;2023-05-16T16:16:35;21.20;84.60
25346;DHT22;13300;51.032;3.710;2023-05-16T16:19:02;21.50;84.30
25346;DHT22;13300;51.032;3.710;2023-05-16T16:21:28;21.30;83.80
25346;DHT22;13300;51.032;3.710;2023-05-16T16:23:54;21.40;83.70
25346;DHT22;13300;51.032;3.710;2023-05-16T16:26:20;21.70;83.80
25346;DHT22;13300;51.032;3.710;2023-05-16T16:28:48;21.90;82.70
25346;DHT22;13300;51.032;3.710;2023-05-16T16:31:15;21.50;83.40
25346;DHT22;13300;51.032;3.710;2023-05-16T16:33:41;21.10;84.40
25346;DHT22;13300;51.032;3.710;2023-05-16T16:36:07;20.80;85.30
25346;DHT22;13300;51.032;3.710;2023-05-16T16:38:33;20.30;86.20
25346;DHT22;13300;51.032;3.710;2023-05-16T16:40:59;19.90;88.00
25346;DHT22;13300;51.032;3.710;2023-05-16T16:43:24;19.50;89.10